Villanueva, Argentina
Current Conditions -  °F | °C
As of 6:00 PM on Monday 22 Dec 2014 (Local Time) from SAEZ Reporting Station
Clear Clear  
Wind Chill: 21°   Ceiling: Unl
Heat Index: 21°   Visibility: 6mi
Dew Point:   Wind: 13mph
Humidity: 33%   Direction: 240°WSW
Pressure: 30.09"   Gusts: NA
Location:  35.67°S, 58.43°W
Report Text: SAEZ 222100Z 24011KT 210V270 CAVOK 21/04 Q1019
Loading
Personal Weather Stations






























Interactive Weather Map New forecast layout! Learn more

10-Day Weather Forecast

Advertisements
Track Severe Weather on mobile